Time;durP1;ratioP1;P1;durP2;ratioP2;P2;SDS_P1;SDS_P2;PMS_P1;PMS_P2;Temp;Humidity;BMP_temperature;BMP_pressure;BME280_temperature;BME280_humidity;BME280_pressure;Samples;Min_cycle;Max_cycle;Signal;HPM_P1;HPM_P2
2022/07/22 00:00:25;;;;;;;7.80;6.30;;;;;;;21.23;47.32;98681.63;432720;1270;96678;-45
2022/07/22 00:10:44;;;;;;;10.30;6.10;;;;;;;20.69;48.25;98682.34;432771;1270;111074;-43
2022/07/22 00:20:51;;;;;;;13.90;5.50;;;;;;;20.38;49.14;98683.73;432869;1269;108984;-45
2022/07/22 00:30:59;;;;;;;8.90;6.60;;;;;;;20.21;49.94;98694.61;432790;1270;96657;-43
2022/07/22 00:41:04;;;;;;;13.20;6.30;;;;;;;19.94;50.37;98693.91;432823;1270;111164;-44
2022/07/22 00:51:11;;;;;;;12.90;6.70;;;;;;;19.73;51.25;98692.27;432764;1270;108459;-44
2022/07/22 01:01:29;;;;;;;13.60;7.50;;;;;;;19.52;52.15;98689.93;432916;1270;97527;-43
2022/07/22 01:11:36;;;;;;;10.70;7.70;;;;;;;19.27;52.74;98691.48;434251;1258;109665;-44
2022/07/22 01:21:44;;;;;;;11.60;7.00;;;;;;;19.18;53.55;98686.11;433377;1268;108873;-44
2022/07/22 01:31:52;;;;;;;14.30;7.00;;;;;;;19.24;54.02;98680.20;433508;1268;97927;-43
2022/07/22 01:41:59;;;;;;;11.40;7.30;;;;;;;19.29;54.08;98674.80;432932;1270;108851;-46
2022/07/22 01:52:08;;;;;;;18.00;9.20;;;;;;;19.39;54.59;98660.45;433440;1268;97990;-44
2022/07/22 02:02:17;;;;;;;;;;;;;;;19.77;54.66;98658.02;433393;1268;111195;-47
2022/07/22 02:12:25;;;;;;;12.20;8.10;;;;;;;19.76;54.01;98684.05;433380;1268;109060;-44
2022/07/22 02:22:32;;;;;;;14.70;8.00;;;;;;;19.28;54.23;98688.79;433427;1268;97904;-44
2022/07/22 02:32:40;;;;;;;14.70;8.30;;;;;;;18.94;54.95;98696.31;433415;1268;111071;-45
2022/07/22 02:42:47;;;;;;;19.20;9.00;;;;;;;18.78;55.42;98701.08;433436;1268;108809;-43
2022/07/22 02:52:55;;;;;;;18.30;10.50;;;;;;;18.65;56.05;98699.61;433401;1268;97484;-48
2022/07/22 03:03:02;;;;;;;19.40;9.60;;;;;;;18.60;56.58;98701.18;433472;1268;111139;-48
2022/07/22 03:13:09;;;;;;;14.60;8.40;;;;;;;18.64;56.92;98706.48;433405;1267;107772;-46
2022/07/22 03:23:16;;;;;;;18.10;10.40;;;;;;;18.76;57.35;98719.95;433500;1268;97508;-43
2022/07/22 03:33:23;;;;;;;20.60;11.60;;;;;;;19.13;57.78;98731.77;433457;1268;108829;-45
2022/07/22 03:43:31;;;;;;;13.60;10.50;;;;;;;19.67;57.78;98757.52;433703;1268;98012;-47
2022/07/22 03:53:38;;;;;;;19.30;11.50;;;;;;;20.78;57.59;98763.33;433532;1268;111160;-45
2022/07/22 04:03:45;;;;;;;16.00;12.20;;;;;;;21.51;56.76;98776.11;433807;1268;109303;-44
2022/07/22 04:13:53;;;;;;;13.60;10.50;;;;;;;21.49;56.64;98780.51;433889;1267;97895;-45
2022/07/22 04:24:00;;;;;;;19.00;10.90;;;;;;;21.95;56.46;98773.40;433913;1267;110995;-44
2022/07/22 04:34:08;;;;;;;14.80;10.00;;;;;;;23.32;55.91;98760.05;433812;1267;109277;-45
2022/07/22 04:44:15;;;;;;;13.40;9.10;;;;;;;24.98;54.64;98755.95;433814;1268;96692;-44
2022/07/22 04:54:22;;;;;;;10.90;9.10;;;;;;;25.73;53.35;98765.60;433804;1267;111279;-44
2022/07/22 05:04:30;;;;;;;18.00;9.20;;;;;;;26.21;52.47;98767.04;433969;1267;108583;-42
2022/07/22 05:14:37;;;;;;;10.60;7.80;;;;;;;26.38;51.59;98763.66;433903;1267;97897;-43
2022/07/22 05:24:45;;;;;;;11.30;8.50;;;;;;;26.63;50.89;98755.86;434076;1267;111314;-44
2022/07/22 05:34:52;;;;;;;13.60;9.00;;;;;;;26.85;50.43;98745.33;433999;1267;108900;-44
2022/07/22 05:44:59;;;;;;;12.30;8.60;;;;;;;26.99;49.92;98748.15;433820;1267;97999;-46
2022/07/22 05:55:07;;;;;;;13.10;10.30;;;;;;;26.57;49.50;98732.08;433899;1267;111074;-42
2022/07/22 06:05:14;;;;;;;18.50;10.70;;;;;;;27.04;49.47;98715.68;433504;1268;108980;-44
2022/07/22 06:15:42;;;;;;;13.20;10.30;;;;;;;27.87;48.83;98715.21;433677;1268;97999;-46
2022/07/22 06:25:49;;;;;;;16.50;10.40;;;;;;;28.59;47.77;98721.54;433897;1267;110999;-42
2022/07/22 06:35:57;;;;;;;11.80;10.60;;;;;;;29.14;47.02;98744.91;433946;1267;108807;-42
2022/07/22 06:46:04;;;;;;;11.30;9.30;;;;;;;29.83;46.47;98764.31;433230;1270;97932;-42
2022/07/22 06:56:11;;;;;;;11.30;9.10;;;;;;;30.06;44.82;98764.71;433949;1267;108295;-47
2022/07/22 07:06:22;;;;;;;15.60;8.90;;;;;;;29.46;43.97;98756.95;433872;1267;96671;-42
2022/07/22 07:16:30;;;;;;;8.90;8.00;;;;;;;29.66;44.45;98756.88;433936;1268;111061;-45
2022/07/22 07:26:37;;;;;;;9.30;8.30;;;;;;;29.58;43.04;98760.73;433927;1268;108670;-43
2022/07/22 07:36:45;;;;;;;9.40;8.50;;;;;;;28.74;43.40;98749.17;434139;1267;97894;-46
2022/07/22 07:46:52;;;;;;;10.20;8.90;;;;;;;27.98;44.72;98756.26;434057;1267;108840;-46
2022/07/22 07:56:59;;;;;;;16.60;8.80;;;;;;;28.16;44.96;98765.02;433919;1267;97907;-43
2022/07/22 08:07:07;;;;;;;11.00;9.40;;;;;;;28.31;45.13;98769.83;433901;1268;111133;-43
2022/07/22 08:17:16;;;;;;;15.60;8.50;;;;;;;29.32;45.05;98776.09;433889;1267;108667;-45
2022/07/22 08:27:24;;;;;;;13.00;8.90;;;;;;;30.17;43.87;98783.32;433978;1267;97929;-45
2022/07/22 08:37:35;;;;;;;9.80;8.90;;;;;;;30.89;43.10;98792.13;433907;1267;111256;-43
2022/07/22 08:57:51;;;;;;;11.30;8.20;;;;;;;31.45;41.80;98799.67;434123;1267;97464;-43
2022/07/22 09:08:00;;;;;;;9.40;7.80;;;;;;;31.83;41.79;98795.15;433532;1268;111054;-45
2022/07/22 09:18:10;;;;;;;11.00;7.90;;;;;;;32.20;40.93;98786.29;434090;1267;109353;-45
2022/07/22 09:28:16;;;;;;;10.60;8.70;;;;;;;31.88;40.24;98777.37;433383;1268;97517;-44
2022/07/22 09:48:37;;;;;;;8.90;8.00;;;;;;;32.94;39.67;98780.54;434056;1267;107168;-48
2022/07/22 09:58:42;;;;;;;11.00;8.10;;;;;;;32.52;38.61;98781.19;433090;1269;97903;-44
2022/07/22 10:08:55;;;;;;;14.20;6.90;;;;;;;32.52;38.88;98778.21;434044;1265;108859;-44
2022/07/22 10:19:29;;;;;;;7.80;7.00;;;;;;;32.36;38.41;98769.77;434068;1267;97894;-45
2022/07/22 10:40:10;;;;;;;7.80;6.50;;;;;;;33.21;37.66;98760.69;433897;1267;109102;-44
2022/07/22 11:00:57;;;;;;;6.10;5.50;;;;;;;33.37;36.31;98743.40;432328;1272;111399;-44
2022/07/22 11:11:05;;;;;;;6.30;5.80;;;;;;;33.51;36.25;98743.45;431878;1272;108886;-46
2022/07/22 11:31:22;;;;;;;8.20;5.30;;;;;;;33.40;35.21;98739.43;432869;1268;109025;-43
2022/07/22 11:41:31;;;;;;;5.80;5.40;;;;;;;33.57;34.86;98734.56;433682;1267;441964;-43
2022/07/22 11:51:40;;;;;;;6.60;5.70;;;;;;;33.52;34.61;98728.17;434083;1267;110912;-44
2022/07/22 12:01:47;;;;;;;8.20;5.80;;;;;;;33.60;34.59;98730.59;433917;1267;108684;-43
2022/07/22 12:11:58;;;;;;;6.70;6.10;;;;;;;33.55;33.96;98719.11;433903;1268;97929;-44
2022/07/22 12:22:08;;;;;;;6.90;6.40;;;;;;;33.73;33.81;98708.52;434165;1268;111351;-48
2022/07/22 12:42:26;;;;;;;7.70;6.50;;;;;;;33.53;34.05;98698.27;434033;1267;96736;-44
2022/07/22 12:52:34;;;;;;;9.00;8.20;;;;;;;33.15;33.79;98684.39;434036;1267;111045;-44
2022/07/22 13:03:01;;;;;;;7.50;6.90;;;;;;;33.19;34.37;98676.13;433920;1268;107399;-44
2022/07/22 13:13:08;;;;;;;8.50;6.90;;;;;;;33.35;34.00;98671.88;433881;1268;97903;-42
2022/07/22 13:23:16;;;;;;;7.20;6.60;;;;;;;33.10;33.58;98665.79;434001;1267;111360;-44
2022/07/22 13:33:24;;;;;;;7.40;6.80;;;;;;;32.68;33.90;98653.24;433979;1267;108851;-44
2022/07/22 13:43:31;;;;;;;7.60;6.90;;;;;;;32.82;33.84;98656.23;433903;1267;97926;-46
2022/07/22 13:53:39;;;;;;;8.00;6.50;;;;;;;32.81;33.87;98644.63;433699;1268;111077;-44
2022/07/22 14:03:47;;;;;;;7.10;6.40;;;;;;;32.73;33.45;98636.41;433975;1267;108820;-48
2022/07/22 14:13:55;;;;;;;7.30;6.60;;;;;;;32.66;33.40;98638.21;433856;1267;97914;-45
2022/07/22 14:24:04;;;;;;;8.20;6.80;;;;;;;32.63;33.07;98634.11;433890;1267;111068;-47
2022/07/22 14:34:11;;;;;;;7.20;6.70;;;;;;;32.77;33.09;98625.58;433795;1267;108770;-43
2022/07/22 14:44:18;;;;;;;6.80;6.20;;;;;;;32.69;32.96;98619.70;434008;1268;96649;-42
2022/07/22 14:54:24;;;;;;;6.60;6.00;;;;;;;32.54;32.86;98618.92;433822;1267;111078;-43
2022/07/22 15:04:31;;;;;;;6.70;6.20;;;;;;;32.41;32.73;98620.20;433885;1267;107711;-44
2022/07/22 15:14:39;;;;;;;6.70;6.10;;;;;;;32.10;33.02;98616.85;433865;1267;97885;-44
2022/07/22 15:34:52;;;;;;;5.90;5.50;;;;;;;32.22;32.38;98603.79;433870;1268;108704;-43
2022/07/22 15:45:00;;;;;;;6.00;5.50;;;;;;;32.20;32.03;98601.09;433981;1268;97546;-45
2022/07/22 15:55:07;;;;;;;6.80;5.10;;;;;;;32.14;32.06;98599.52;433909;1268;109283;-44
2022/07/22 16:05:14;;;;;;;6.70;6.00;;;;;;;32.05;31.81;98600.39;433894;1268;97924;-43
2022/07/22 16:15:22;;;;;;;6.00;5.10;;;;;;;31.87;31.61;98594.31;434107;1268;111070;-45
2022/07/22 16:25:33;;;;;;;6.50;5.20;;;;;;;31.60;31.70;98593.68;433988;1268;108821;-43
2022/07/22 16:35:41;;;;;;;8.00;5.50;;;;;;;31.35;31.92;98587.95;434074;1268;97580;-43
2022/07/22 16:45:48;;;;;;;14.00;6.90;;;;;;;31.15;31.67;98586.77;433998;1268;111110;-43
2022/07/22 16:55:55;;;;;;;6.00;5.50;;;;;;;30.93;31.82;98586.11;433507;1268;109240;-44
2022/07/22 17:06:03;;;;;;;7.30;4.90;;;;;;;30.68;32.00;98590.45;433948;1268;96685;-44
2022/07/22 17:16:08;;;;;;;6.40;5.20;;;;;;;30.44;32.11;98592.25;433930;1268;111221;-43
2022/07/22 17:26:15;;;;;;;6.00;4.70;;;;;;;30.20;32.36;98596.71;433845;1268;108847;-44
2022/07/22 17:36:23;;;;;;;7.70;5.70;;;;;;;29.94;32.63;98599.92;433856;1268;96727;-45
2022/07/22 17:46:30;;;;;;;7.00;5.70;;;;;;;29.71;32.89;98598.96;433785;1268;111132;-44
2022/07/22 18:00:41;;;;;;;16.70;6.10;;;;;;;29.36;33.52;98605.48;419934;1309;638503;-43
2022/07/22 18:10:45;;;;;;;14.20;6.20;;;;;;;29.04;34.08;98609.22;430490;1277;344157;-44
2022/07/22 18:20:48;;;;;;;12.90;6.50;;;;;;;28.58;35.04;98605.56;431141;1277;95561;-45
2022/07/22 18:30:52;;;;;;;17.40;6.60;;;;;;;28.06;36.07;98603.33;430982;1277;108839;-44
2022/07/22 18:40:57;;;;;;;24.50;10.40;;;;;;;27.51;36.93;98605.04;430758;1277;95941;-45
2022/07/22 18:51:02;;;;;;;9.80;8.90;;;;;;;26.96;37.75;98611.72;434320;1265;108508;-46
2022/07/22 19:01:05;;;;;;;12.00;7.70;;;;;;;26.42;39.08;98616.58;434381;1265;108820;-44
2022/07/22 19:11:10;;;;;;;15.00;8.50;;;;;;;25.84;39.98;98627.11;434168;1265;96407;-46
2022/07/22 19:21:17;;;;;;;17.40;8.80;;;;;;;25.37;40.80;98631.25;434039;1268;95392;-44
2022/07/22 19:31:20;;;;;;;;;;;;;;;24.99;42.16;98637.78;433999;1265;107766;-43
2022/07/22 19:41:30;;;;;;;13.50;8.10;;;;;;;24.55;42.92;98627.80;434401;1265;108846;-49
2022/07/22 19:51:34;;;;;;;17.50;10.80;;;;;;;24.30;43.78;98630.47;434178;1267;95357;-46
2022/07/22 20:01:37;;;;;;;13.90;9.80;;;;;;;24.11;44.37;98630.02;434379;1265;95529;-43
2022/07/22 20:11:42;;;;;;;11.40;9.90;;;;;;;23.84;45.16;98631.75;434117;1266;96288;-43
2022/07/22 20:21:45;;;;;;;16.60;10.50;;;;;;;23.58;45.72;98636.05;434072;1267;109044;-45
2022/07/22 20:31:52;;;;;;;11.10;9.70;;;;;;;23.36;46.50;98634.93;434009;1266;96175;-44
2022/07/22 20:41:56;;;;;;;21.30;10.90;;;;;;;23.14;47.21;98636.20;434290;1265;109710;-44
2022/07/22 20:52:20;;;;;;;14.90;9.80;;;;;;;22.88;47.98;98640.33;434275;1265;108785;-45
2022/07/22 21:02:24;;;;;;;18.40;11.10;;;;;;;22.67;48.32;98638.10;434649;1265;95548;-44
2022/07/22 21:32:40;;;;;;;14.30;11.20;;;;;;;22.07;50.20;98640.03;434520;1264;108767;-47
2022/07/22 21:42:44;;;;;;;19.00;11.50;;;;;;;21.97;50.74;98639.27;434517;1265;96240;-45
2022/07/22 21:52:48;;;;;;;15.10;11.20;;;;;;;21.91;51.25;98639.82;434309;1265;96327;-46
2022/07/22 22:02:52;;;;;;;23.10;17.10;;;;;;;21.87;51.68;98636.63;434285;1265;109344;-43
2022/07/22 22:12:56;;;;;;;20.60;17.10;;;;;;;21.72;51.91;98645.26;434157;1265;96179;-44
2022/07/22 22:23:00;;;;;;;35.90;24.30;;;;;;;21.36;52.30;98649.05;434198;1265;96275;-44
2022/07/22 22:33:05;;;;;;;25.70;20.30;;;;;;;21.09;52.77;98652.56;434266;1264;108780;-46
2022/07/22 22:43:09;;;;;;;18.40;13.90;;;;;;;20.80;53.08;98649.44;434084;1265;96149;-45
2022/07/22 22:53:13;;;;;;;20.00;14.70;;;;;;;20.68;54.00;98652.23;434303;1264;108684;-45
2022/07/22 23:03:16;;;;;;;23.90;14.90;;;;;;;20.72;54.50;98648.56;434318;1265;96070;-44
2022/07/22 23:13:20;;;;;;;18.10;14.90;;;;;;;20.60;54.81;98651.73;434235;1264;95570;-47
2022/07/22 23:23:25;;;;;;;16.60;13.70;;;;;;;20.42;55.03;98652.54;434288;1264;96178;-46
2022/07/22 23:33:29;;;;;;;27.40;16.00;;;;;;;20.33;55.40;98646.86;434405;1265;109067;-43
2022/07/22 23:43:36;;;;;;;24.00;15.30;;;;;;;20.45;56.09;98647.17;434345;1265;95583;-44
2022/07/22 23:53:40;;;;;;;23.90;15.00;;;;;;;20.41;55.95;98649.98;434426;1265;109749;-47
